createdAt,value
2022-11-18T00:00:40.118Z,99956.78
2022-11-18T00:03:43.842Z,99971.44
2022-11-18T00:06:46.659Z,99979.28
2022-11-18T00:09:50.691Z,99983.50
2022-11-18T00:13:10.964Z,99981.84
2022-11-18T00:16:13.924Z,99984.69
2022-11-18T00:19:17.371Z,99969.84
2022-11-18T00:22:23.253Z,99960.69
2022-11-18T00:25:29.613Z,99964.03
2022-11-18T00:28:32.850Z,99965.38
2022-11-18T00:31:36.297Z,99961.34
2022-11-18T00:34:39.074Z,99970.50
2022-11-18T00:37:41.731Z,99981.22
2022-11-18T00:40:46.285Z,99971.41
2022-11-18T00:43:49.104Z,99978.63
2022-11-18T00:46:52.046Z,99978.84
2022-11-18T00:49:54.778Z,99968.72
2022-11-18T00:52:57.587Z,99967.44
2022-11-18T00:56:01.703Z,99971.44
2022-11-18T00:59:04.666Z,99973.63
2022-11-18T01:02:07.382Z,99971.34
2022-11-18T01:05:10.565Z,99961.50
2022-11-18T01:08:14.076Z,99967.56
2022-11-18T01:11:35.863Z,99972.81
2022-11-18T01:14:38.559Z,99970.22
2022-11-18T01:17:41.467Z,99975.28
2022-11-18T01:20:44.585Z,99986.50
2022-11-18T01:23:47.392Z,99996.94
2022-11-18T01:26:51.458Z,99986.38
2022-11-18T01:29:54.342Z,99992.91
2022-11-18T01:32:57.087Z,99996.34
2022-11-18T01:35:59.948Z,99994.69
2022-11-18T01:39:02.684Z,99998.94
2022-11-18T01:42:12.931Z,99999.75
2022-11-18T01:45:29.226Z,100000.41
2022-11-18T01:48:36.061Z,100008.81
2022-11-18T01:51:46.295Z,99999.69
2022-11-18T01:54:55.359Z,100003.19
2022-11-18T01:58:04.963Z,100002.16
2022-11-18T02:01:08.787Z,99998.97
2022-11-18T02:04:12.899Z,100000.25
2022-11-18T02:07:16.401Z,100001.34
2022-11-18T02:10:25.217Z,99990.50
2022-11-18T02:13:29.663Z,99996.34
2022-11-18T02:16:46.340Z,99990.25
2022-11-18T02:20:23.884Z,99993.63
2022-11-18T02:23:57.246Z,100004.66
2022-11-18T02:27:42.058Z,99989.25
2022-11-18T02:30:54.693Z,99999.38
2022-11-18T02:34:04.975Z,100005.81
2022-11-18T02:37:16.156Z,100006.63
2022-11-18T02:40:23.731Z,100006.72
2022-11-18T02:43:31.882Z,100003.50
2022-11-18T02:46:38.768Z,100001.22
2022-11-18T02:49:45.731Z,100017.84
2022-11-18T02:52:53.750Z,100005.97
2022-11-18T02:55:57.243Z,100005.97
2022-11-18T02:58:59.944Z,100009.53
2022-11-18T03:02:06.577Z,100000.41
2022-11-18T03:05:14.270Z,100001.31
2022-11-18T03:08:23.780Z,100002.81
2022-11-18T03:11:30.446Z,100006.00
2022-11-18T03:14:42.249Z,100003.09
2022-11-18T03:17:57.830Z,100000.72
2022-11-18T03:21:08.123Z,100014.00
2022-11-18T03:24:15.418Z,100004.56
2022-11-18T03:27:25.087Z,100007.34
2022-11-18T03:30:31.338Z,100024.38
2022-11-18T03:33:39.719Z,100018.97
2022-11-18T03:36:51.359Z,100028.69
2022-11-18T03:39:58.768Z,100027.44
2022-11-18T03:43:07.567Z,100029.88
2022-11-18T03:46:13.420Z,100027.00
2022-11-18T03:49:23.253Z,100036.22
2022-11-18T03:52:31.220Z,100037.59
2022-11-18T03:55:39.550Z,100036.44
2022-11-18T03:58:52.046Z,100038.03
2022-11-18T04:02:00.521Z,100032.78
2022-11-18T04:05:07.111Z,100054.50
2022-11-18T04:08:14.151Z,100046.31
2022-11-18T04:11:38.688Z,100051.31
2022-11-18T04:14:44.128Z,100054.50
2022-11-18T04:17:46.960Z,100057.44
2022-11-18T04:20:50.996Z,100053.69
2022-11-18T04:23:53.897Z,100061.66
2022-11-18T04:26:56.726Z,100054.34
2022-11-18T04:29:59.422Z,100065.94
2022-11-18T04:33:02.394Z,100064.31
2022-11-18T04:36:07.122Z,100064.69
2022-11-18T04:39:09.991Z,100060.78
2022-11-18T04:42:12.803Z,100068.28
2022-11-18T04:45:15.494Z,100073.84
2022-11-18T04:48:19.411Z,100070.59
2022-11-18T04:51:23.424Z,100074.16
2022-11-18T04:54:27.344Z,100076.56
2022-11-18T04:57:30.000Z,100089.47
2022-11-18T05:00:32.727Z,100090.53
2022-11-18T05:03:35.375Z,100086.19
2022-11-18T05:06:42.966Z,100096.78
2022-11-18T05:09:45.616Z,100099.72
2022-11-18T05:12:49.950Z,100100.75
2022-11-18T05:15:52.631Z,100102.84
2022-11-18T05:18:55.587Z,100110.09
2022-11-18T05:22:00.080Z,100108.81
2022-11-18T05:25:02.977Z,100112.16
2022-11-18T05:28:06.128Z,100108.81
2022-11-18T05:31:09.452Z,100109.03
2022-11-18T05:34:12.521Z,100112.16
2022-11-18T05:37:16.776Z,100120.66
2022-11-18T05:40:21.812Z,100121.06
2022-11-18T05:43:23.678Z,100131.09
2022-11-18T05:46:26.719Z,100133.78
2022-11-18T05:49:29.578Z,100141.44
2022-11-18T05:52:33.644Z,100137.50
2022-11-18T05:55:40.760Z,100150.16
2022-11-18T05:58:43.436Z,100150.00
2022-11-18T06:01:50.576Z,100146.47
2022-11-18T06:04:59.117Z,100156.22
2022-11-18T06:08:03.709Z,100165.97
2022-11-18T06:11:08.453Z,100161.59
2022-11-18T06:14:15.867Z,100175.13
2022-11-18T06:17:23.832Z,100177.19
2022-11-18T06:20:27.440Z,100174.09
2022-11-18T06:23:34.832Z,100170.53
2022-11-18T06:26:37.979Z,100181.56
2022-11-18T06:29:40.692Z,100179.06
2022-11-18T06:32:43.473Z,100186.13
2022-11-18T06:35:46.392Z,100185.09
2022-11-18T06:38:50.558Z,100186.09
2022-11-18T06:41:53.756Z,100189.84
2022-11-18T06:44:56.601Z,100196.91
2022-11-18T06:48:00.275Z,100202.13
2022-11-18T06:51:06.058Z,100204.00
2022-11-18T06:54:11.192Z,100214.78
2022-11-18T06:57:14.291Z,100225.78
2022-11-18T07:00:18.139Z,100213.34
2022-11-18T07:03:20.947Z,100224.13
2022-11-18T07:06:26.110Z,100234.13
2022-11-18T07:09:30.167Z,100238.25
2022-11-18T07:12:33.187Z,100220.81
2022-11-18T07:15:35.868Z,100224.56
2022-11-18T07:18:41.749Z,100234.69
2022-11-18T07:21:44.430Z,100217.28
2022-11-18T07:24:48.597Z,100240.94
2022-11-18T07:27:51.271Z,100226.22
2022-11-18T07:30:54.106Z,100239.91
2022-11-18T07:33:56.825Z,100246.38
2022-11-18T07:36:59.522Z,100244.06
2022-11-18T07:40:03.726Z,100248.44
2022-11-18T07:43:07.393Z,100256.94
2022-11-18T07:46:13.737Z,100266.06
2022-11-18T07:49:17.055Z,100267.13
2022-11-18T07:52:19.910Z,100267.53
2022-11-18T07:55:27.984Z,100275.03
2022-11-18T07:58:33.582Z,100270.69
2022-11-18T08:01:37.014Z,100263.22
2022-11-18T08:04:39.817Z,100278.13
2022-11-18T08:07:42.707Z,100278.56
2022-11-18T08:10:46.936Z,100281.03
2022-11-18T08:13:49.662Z,100295.38
2022-11-18T08:16:52.521Z,100292.91
2022-11-18T08:19:55.240Z,100288.47
2022-11-18T08:22:58.136Z,100292.03
2022-11-18T08:26:05.647Z,100303.22
2022-11-18T08:29:08.316Z,100306.41
2022-11-18T08:32:11.129Z,100292.66
2022-11-18T08:35:14.121Z,100306.56
2022-11-18T08:38:16.913Z,100289.59
2022-11-18T08:41:25.417Z,100297.06
2022-11-18T08:44:28.113Z,100302.00
2022-11-18T08:47:30.909Z,100311.16
2022-11-18T08:50:34.145Z,100302.88
2022-11-18T08:53:37.254Z,100333.81
2022-11-18T08:56:41.453Z,100330.34
2022-11-18T08:59:44.141Z,100336.19
2022-11-18T09:02:46.833Z,100345.09
2022-11-18T09:05:49.712Z,100342.78
2022-11-18T09:08:52.548Z,100342.00
2022-11-18T09:11:56.676Z,100347.78
2022-11-18T09:15:13.378Z,100354.91
2022-11-18T09:18:16.783Z,100370.91
2022-11-18T09:21:20.141Z,100354.25
2022-11-18T09:24:22.809Z,100373.66
2022-11-18T09:27:26.964Z,100387.19
2022-11-18T09:30:29.640Z,100373.63
2022-11-18T09:33:32.496Z,100382.81
2022-11-18T09:36:35.288Z,100393.47
2022-11-18T09:39:38.244Z,100395.41
2022-11-18T09:42:57.339Z,100391.25
2022-11-18T09:46:04.727Z,100388.13
2022-11-18T09:49:16.006Z,100407.47
2022-11-18T09:52:23.218Z,100386.75
2022-11-18T09:55:26.164Z,100408.91
2022-11-18T09:58:35.643Z,100413.72
2022-11-18T10:01:38.521Z,100409.13
2022-11-18T10:04:41.423Z,100414.56
2022-11-18T10:07:53.617Z,100416.53
2022-11-18T10:11:04.626Z,100419.09
2022-11-18T10:14:23.712Z,100416.38
2022-11-18T10:17:47.833Z,100418.53
2022-11-18T10:20:57.833Z,100422.72
2022-11-18T10:24:05.149Z,100430.38
2022-11-18T10:27:12.583Z,100426.88
2022-11-18T10:30:19.912Z,100428.28
2022-11-18T10:33:28.646Z,100422.84
2022-11-18T10:36:34.292Z,100429.53
2022-11-18T10:39:50.786Z,100423.41
2022-11-18T10:42:53.523Z,100425.97
2022-11-18T10:45:57.743Z,100441.69
2022-11-18T10:49:16.346Z,100441.28
2022-11-18T10:52:19.757Z,100435.72
2022-11-18T10:55:24.417Z,100444.09
2022-11-18T10:58:29.064Z,100445.31
2022-11-18T11:01:33.412Z,100447.31
2022-11-18T11:04:38.496Z,100456.47
2022-11-18T11:07:41.456Z,100451.72
2022-11-18T11:10:55.690Z,100456.72
2022-11-18T11:14:24.568Z,100458.38
2022-11-18T11:17:33.181Z,100454.50
2022-11-18T11:20:37.392Z,100450.34
2022-11-18T11:23:40.711Z,100463.03
2022-11-18T11:30:19.983Z,100458.84
2022-11-18T11:33:40.363Z,100456.78
2022-11-18T11:36:49.140Z,100461.41
2022-11-18T11:40:14.246Z,100456.19
2022-11-18T11:43:29.834Z,100468.72
2022-11-18T11:47:06.564Z,100461.44
2022-11-18T11:50:18.428Z,100465.59
2022-11-18T11:53:33.161Z,100462.25
2022-11-18T11:56:41.900Z,100466.66
2022-11-18T11:59:52.314Z,100462.91
2022-11-18T12:03:12.153Z,100467.72
2022-11-18T12:06:16.444Z,100461.03
2022-11-18T12:09:25.724Z,100475.19
2022-11-18T12:12:38.170Z,100474.38
2022-11-18T12:15:52.975Z,100481.44
2022-11-18T12:18:59.221Z,100484.97
2022-11-18T12:22:04.836Z,100484.75
2022-11-18T12:25:57.184Z,100496.00
2022-11-18T12:29:23.727Z,100497.88
2022-11-18T12:32:36.223Z,100507.88
2022-11-18T12:35:39.266Z,100504.75
2022-11-18T12:38:43.421Z,100503.69
2022-11-18T12:42:14.421Z,100502.88
2022-11-18T12:45:48.932Z,100512.88
2022-11-18T12:48:51.620Z,100505.56
2022-11-18T12:51:55.801Z,100515.78
2022-11-18T12:55:02.250Z,100512.84
2022-11-18T12:58:05.037Z,100516.38
2022-11-18T13:01:09.792Z,100529.03
2022-11-18T13:04:19.335Z,100524.28
2022-11-18T13:07:40.185Z,100522.19
2022-11-18T13:10:54.597Z,100524.47
2022-11-18T13:14:16.627Z,100529.25
2022-11-18T13:17:45.185Z,100519.25
2022-11-18T13:20:57.464Z,100527.97
2022-11-18T13:24:01.063Z,100522.13
2022-11-18T13:27:05.734Z,100527.66
2022-11-18T13:30:13.602Z,100542.09
2022-11-18T13:33:16.354Z,100541.31
2022-11-18T13:36:20.162Z,100552.31
2022-11-18T13:39:25.490Z,100541.84
2022-11-18T13:42:30.954Z,100536.88
2022-11-18T13:45:35.978Z,100536.69
2022-11-18T13:48:44.005Z,100545.81
2022-11-18T13:51:47.189Z,100543.31
2022-11-18T13:54:52.552Z,100548.09
2022-11-18T13:58:02.225Z,100553.44
2022-11-18T14:01:07.503Z,100554.31
2022-11-18T14:04:19.189Z,100566.94
2022-11-18T14:07:31.721Z,100566.88
2022-11-18T14:10:42.903Z,100577.47
2022-11-18T14:13:54.490Z,100577.47
2022-11-18T14:17:06.114Z,100582.66
2022-11-18T14:20:17.541Z,100574.22
2022-11-18T14:23:27.048Z,100574.47
2022-11-18T14:26:31.213Z,100589.84
2022-11-18T14:29:35.281Z,100590.50
2022-11-18T14:32:37.988Z,100588.41
2022-11-18T14:35:41.585Z,100589.59
2022-11-18T14:42:13.835Z,100602.31
2022-11-18T14:45:18.029Z,100601.09
2022-11-18T14:48:26.063Z,100607.81
2022-11-18T14:51:32.395Z,100611.25
2022-11-18T14:54:35.364Z,100611.81
2022-11-18T14:57:38.095Z,100614.06
2022-11-18T15:00:42.874Z,100617.31
2022-11-18T15:03:45.789Z,100617.84
2022-11-18T15:06:48.822Z,100622.19
2022-11-18T15:09:51.970Z,100616.16
2022-11-18T15:12:55.473Z,100631.16
2022-11-18T15:15:59.795Z,100636.91
2022-11-18T15:19:04.347Z,100635.56
2022-11-18T15:22:07.010Z,100645.88
2022-11-18T15:25:11.108Z,100650.22
2022-11-18T15:28:13.959Z,100655.50
2022-11-18T15:31:18.903Z,100658.66
2022-11-18T15:34:22.072Z,100666.75
2022-11-18T15:37:24.845Z,100665.59
2022-11-18T15:40:28.031Z,100670.53
2022-11-18T15:43:30.908Z,100663.69
2022-11-18T15:46:34.963Z,100675.34
2022-11-18T15:49:37.876Z,100685.25
2022-11-18T15:52:40.557Z,100685.47
2022-11-18T15:55:43.218Z,100683.16
2022-11-18T15:58:46.049Z,100688.72
2022-11-18T16:01:50.629Z,100687.56
2022-11-18T16:04:53.476Z,100689.34
2022-11-18T16:07:56.158Z,100687.88
2022-11-18T16:11:17.266Z,100690.03
2022-11-18T16:14:22.504Z,100698.00
2022-11-18T16:17:26.921Z,100703.34
2022-11-18T16:20:29.857Z,100706.31
2022-11-18T16:23:32.538Z,100707.16
2022-11-18T16:26:37.306Z,100698.34
2022-11-18T16:29:40.136Z,100693.69
2022-11-18T16:37:16.864Z,100706.50
2022-11-18T16:40:19.561Z,100710.88
2022-11-18T16:43:22.270Z,100715.06
2022-11-18T16:46:26.391Z,100723.97
2022-11-18T16:49:29.125Z,100727.31
2022-11-18T16:52:33.198Z,100738.47
2022-11-18T16:55:35.913Z,100733.44
2022-11-18T16:58:38.589Z,100734.66
2022-11-18T17:01:42.985Z,100744.94
2022-11-18T17:04:45.650Z,100743.50
2022-11-18T17:07:49.858Z,100750.31
2022-11-18T17:10:52.694Z,100750.34
2022-11-18T17:13:58.299Z,100755.56
2022-11-18T17:17:01.190Z,100754.44
2022-11-18T17:20:04.051Z,100747.19
2022-11-18T17:23:08.285Z,100757.13
2022-11-18T17:26:11.013Z,100759.25
2022-11-18T17:29:15.797Z,100755.63
2022-11-18T17:32:19.018Z,100756.97
2022-11-18T17:35:21.702Z,100767.47
2022-11-18T17:38:27.016Z,100776.22
2022-11-18T17:41:49.039Z,100769.34
2022-11-18T17:44:51.718Z,100772.31
2022-11-18T17:47:56.661Z,100775.94
2022-11-18T17:51:05.141Z,100770.91
2022-11-18T17:54:10.887Z,100763.47
2022-11-18T17:57:13.661Z,100768.03
2022-11-18T18:00:17.773Z,100768.75
2022-11-18T18:03:20.495Z,100763.34
2022-11-18T18:06:23.228Z,100777.41
2022-11-18T18:09:31.068Z,100783.72
2022-11-18T18:12:53.852Z,100785.84
2022-11-18T18:19:24.163Z,100793.69
2022-11-18T18:22:26.860Z,100781.91
2022-11-18T18:25:30.901Z,100794.06
2022-11-18T18:31:55.531Z,100803.63
2022-11-18T18:34:59.527Z,100805.28
2022-11-18T18:38:03.424Z,100815.75
2022-11-18T18:41:09.553Z,100820.63
2022-11-18T18:44:18.008Z,100815.94
2022-11-18T18:47:20.223Z,100819.97
2022-11-18T18:53:44.993Z,100829.81
2022-11-18T18:56:52.139Z,100823.63
2022-11-18T18:59:56.145Z,100832.88
2022-11-18T19:03:00.199Z,100832.34
2022-11-18T19:06:56.822Z,100826.59
2022-11-18T19:09:40.316Z,100828.44
2022-11-18T19:12:45.671Z,100822.97
2022-11-18T19:15:48.471Z,100827.38
2022-11-18T19:18:51.213Z,100831.59
2022-11-18T19:21:55.206Z,100835.28
2022-11-18T19:24:58.912Z,100840.47
2022-11-18T19:28:07.670Z,100845.38
2022-11-18T19:31:10.954Z,100852.09
2022-11-18T19:34:14.277Z,100858.66
2022-11-18T19:37:17.379Z,100855.81
2022-11-18T19:40:21.586Z,100859.31
2022-11-18T19:43:27.338Z,100857.47
2022-11-18T19:46:31.872Z,100861.84
2022-11-18T19:49:34.682Z,100868.22
2022-11-18T19:52:38.674Z,100855.84
2022-11-18T19:55:41.349Z,100866.25
2022-11-18T19:58:47.780Z,100870.97
2022-11-18T20:01:50.552Z,100872.84
2022-11-18T20:05:12.062Z,100873.69
2022-11-18T20:08:14.688Z,100887.28
2022-11-18T20:11:20.643Z,100886.44
2022-11-18T20:14:24.678Z,100880.91
2022-11-18T20:17:28.657Z,100880.59
2022-11-18T20:20:32.658Z,100891.66
2022-11-18T20:23:37.221Z,100882.09
2022-11-18T20:26:41.758Z,100884.28
2022-11-18T20:29:46.026Z,100889.50
2022-11-18T20:32:48.718Z,100894.88
2022-11-18T20:35:51.434Z,100898.41
2022-11-18T20:38:56.147Z,100903.78
2022-11-18T20:42:16.226Z,100910.84
2022-11-18T20:45:21.625Z,100910.19
2022-11-18T20:48:24.546Z,100925.28
2022-11-18T20:54:51.283Z,100931.50
2022-11-18T20:57:53.995Z,100929.69
2022-11-18T21:01:01.699Z,100925.63
2022-11-18T21:04:06.015Z,100934.69
2022-11-18T21:07:08.773Z,100931.69
2022-11-18T21:10:11.578Z,100930.47
2022-11-18T21:13:33.644Z,100932.84
2022-11-18T21:16:38.159Z,100940.25
2022-11-18T21:19:47.210Z,100933.69
2022-11-18T21:22:51.203Z,100931.84
2022-11-18T21:25:53.959Z,100936.22
2022-11-18T21:28:58.112Z,100940.56
2022-11-18T21:32:03.637Z,100942.59
2022-11-18T21:35:06.947Z,100944.28
2022-11-18T21:38:11.419Z,100940.56
2022-11-18T21:41:15.673Z,100950.81
2022-11-18T21:44:18.628Z,100950.97
2022-11-18T21:47:26.563Z,100954.53
2022-11-18T21:50:30.793Z,100945.94
2022-11-18T21:53:34.007Z,100947.09
2022-11-18T21:56:40.367Z,100956.69
2022-11-18T21:59:47.425Z,100949.94
2022-11-18T22:02:55.000Z,100959.84
2022-11-18T22:09:20.565Z,100949.78
2022-11-18T22:12:24.854Z,100954.31
2022-11-18T22:15:28.834Z,100954.63
2022-11-18T22:18:33.823Z,100945.72
2022-11-18T22:21:37.754Z,100956.09
2022-11-18T22:24:40.588Z,100958.91
2022-11-18T22:27:44.506Z,100953.19
2022-11-18T22:30:48.399Z,100956.91
2022-11-18T22:33:54.778Z,100970.84
2022-11-18T22:36:58.782Z,100974.53
2022-11-18T22:40:02.735Z,100971.00
2022-11-18T22:43:04.413Z,100972.00
2022-11-18T22:46:10.541Z,100972.69
2022-11-18T22:49:14.991Z,100974.53
2022-11-18T22:52:18.898Z,100986.13
2022-11-18T22:55:21.540Z,100990.28
2022-11-18T22:58:25.510Z,100990.09
2022-11-18T23:01:29.682Z,100993.22
2022-11-18T23:04:33.756Z,100987.31
2022-11-18T23:07:37.787Z,100986.19
2022-11-18T23:10:40.488Z,100998.09
2022-11-18T23:14:04.878Z,100984.63
2022-11-18T23:17:07.651Z,100995.00
2022-11-18T23:20:13.870Z,100993.13
2022-11-18T23:23:17.931Z,100988.88
2022-11-18T23:26:20.750Z,100998.44
2022-11-18T23:29:24.706Z,100996.78
2022-11-18T23:32:27.402Z,100997.88
2022-11-18T23:35:31.464Z,100992.84
2022-11-18T23:38:36.663Z,101000.72
2022-11-18T23:41:40.070Z,101002.75
2022-11-18T23:44:53.966Z,101001.59
2022-11-18T23:47:57.902Z,100995.38
2022-11-18T23:51:03.834Z,101007.19
2022-11-18T23:54:07.981Z,101001.97
2022-11-18T23:57:12.007Z,101004.97
